Time;durP1;ratioP1;P1;durP2;ratioP2;P2;SDS_P1;SDS_P2;PMS_P1;PMS_P2;Temp;Humidity;BMP_temperature;BMP_pressure;BME280_temperature;BME280_humidity;BME280_pressure;Samples;Min_cycle;Max_cycle;Signal;HPM_P1;HPM_P2
2022/12/05 00:01:13;;;;;;;17.07;9.80;;;;;;;;;;5053543;28;20490;-55
2022/12/05 00:03:39;;;;;;;14.57;8.67;;;;;;;;;;5057183;28;20444;-55
2022/12/05 00:06:05;;;;;;;19.60;10.67;;;;;;;;;;5053674;28;20433;-53
2022/12/05 00:08:31;;;;;;;15.60;9.50;;;;;;;;;;5042477;28;21145;-56
2022/12/05 00:10:57;;;;;;;20.90;10.30;;;;;;;;;;5052763;28;20441;-54
2022/12/05 00:13:23;;;;;;;16.00;8.83;;;;;;;;;;5063171;28;20596;-55
2022/12/05 00:15:49;;;;;;;14.33;8.30;;;;;;;;;;5052251;28;20441;-55
2022/12/05 00:18:15;;;;;;;15.33;8.17;;;;;;;;;;5049553;28;20429;-53
2022/12/05 00:20:47;;;;;;;17.40;9.70;;;;;;;;;;5036783;28;20612;-54
2022/12/05 00:23:13;;;;;;;15.83;9.20;;;;;;;;;;5053261;28;20491;-55
2022/12/05 00:25:39;;;;;;;20.03;9.33;;;;;;;;;;5051979;28;20446;-55
2022/12/05 00:28:05;;;;;;;14.97;8.10;;;;;;;;;;5058877;28;20531;-55
2022/12/05 00:30:31;;;;;;;16.00;9.03;;;;;;;;;;5012734;28;20476;-54
2022/12/05 00:32:57;;;;;;;20.70;8.00;;;;;;;;;;5056907;28;20474;-54
2022/12/05 00:35:23;;;;;;;16.40;9.70;;;;;;;;;;5036948;28;20480;-55
2022/12/05 00:37:49;;;;;;;17.10;8.80;;;;;;;;;;5063310;28;20428;-54
2022/12/05 00:40:15;;;;;;;18.10;8.97;;;;;;;;;;5036186;28;20441;-56
2022/12/05 00:42:41;;;;;;;14.53;9.70;;;;;;;;;;5064879;28;20425;-54
2022/12/05 00:45:07;;;;;;;21.27;9.83;;;;;;;;;;5048518;28;20464;-54
2022/12/05 00:47:36;;;;;;;24.77;9.70;;;;;;;;;;5064875;28;20445;-54
2022/12/05 00:50:03;;;;;;;20.73;10.10;;;;;;;;;;5032975;28;21304;-55
2022/12/05 00:52:29;;;;;;;15.37;8.90;;;;;;;;;;5056774;28;20428;-55
2022/12/05 00:54:55;;;;;;;15.83;7.80;;;;;;;;;;5057242;28;20469;-55
2022/12/05 00:57:21;;;;;;;14.27;7.77;;;;;;;;;;5062444;28;20486;-54
2022/12/05 00:59:47;;;;;;;17.13;8.53;;;;;;;;;;5053829;28;20438;-56
2022/12/05 01:02:13;;;;;;;16.57;8.77;;;;;;;;;;5057684;28;20514;-54
2022/12/05 01:04:39;;;;;;;19.07;8.93;;;;;;;;;;5007884;28;20648;-56
2022/12/05 01:07:05;;;;;;;15.60;8.63;;;;;;;;;;5052611;28;20493;-54
2022/12/05 01:09:31;;;;;;;16.23;8.77;;;;;;;;;;5056132;28;21385;-58
2022/12/05 01:11:57;;;;;;;11.90;8.23;;;;;;;;;;5061750;28;20426;-54
2022/12/05 01:14:24;;;;;;;14.87;8.13;;;;;;;;;;5042808;28;20470;-54
2022/12/05 01:16:50;;;;;;;16.87;8.27;;;;;;;;;;5045516;28;21169;-55
2022/12/05 01:19:17;;;;;;;17.53;9.63;;;;;;;;;;5046963;28;20856;-54
2022/12/05 01:21:43;;;;;;;13.83;8.30;;;;;;;;;;5048963;28;20440;-53
2022/12/05 01:24:09;;;;;;;21.43;8.97;;;;;;;;;;5049015;28;20433;-56
2022/12/05 01:26:36;;;;;;;14.37;8.13;;;;;;;;;;5044674;28;21521;-55
2022/12/05 01:29:02;;;;;;;14.03;8.50;;;;;;;;;;5058092;28;20551;-55
2022/12/05 01:31:28;;;;;;;13.43;6.40;;;;;;;;;;5052598;28;20506;-54
2022/12/05 01:33:55;;;;;;;15.57;9.00;;;;;;;;;;5062248;28;20513;-54
2022/12/05 01:36:21;;;;;;;14.17;8.03;;;;;;;;;;5027565;28;20553;-56
2022/12/05 01:38:47;;;;;;;15.47;7.67;;;;;;;;;;5061271;28;20523;-55
2022/12/05 01:41:14;;;;;;;12.80;6.27;;;;;;;;;;5012003;28;20449;-53
2022/12/05 01:43:55;;;;;;;14.30;8.20;;;;;;;;;;5043580;28;20430;-54
2022/12/05 01:46:21;;;;;;;12.70;7.27;;;;;;;;;;5030778;28;20433;-55
2022/12/05 01:48:47;;;;;;;20.40;8.50;;;;;;;;;;5060274;28;20875;-55
2022/12/05 01:51:13;;;;;;;13.43;6.70;;;;;;;;;;5043110;28;20436;-58
2022/12/05 01:53:39;;;;;;;19.07;8.20;;;;;;;;;;5057413;28;20495;-54
2022/12/05 01:56:05;;;;;;;16.90;7.93;;;;;;;;;;5034256;28;20434;-55
2022/12/05 01:58:32;;;;;;;16.27;7.97;;;;;;;;;;5076496;28;20442;-56
2022/12/05 02:00:58;;;;;;;10.77;6.87;;;;;;;;;;5052166;28;20437;-55
2022/12/05 02:03:24;;;;;;;13.70;7.67;;;;;;;;;;5053034;28;20522;-55
2022/12/05 02:05:50;;;;;;;12.20;7.90;;;;;;;;;;5059153;28;20434;-54
2022/12/05 02:08:16;;;;;;;13.43;7.70;;;;;;;;;;5029114;28;20479;-54
2022/12/05 02:10:46;;;;;;;12.73;7.70;;;;;;;;;;5054189;28;20429;-54
2022/12/05 02:13:15;;;;;;;11.10;6.80;;;;;;;;;;5011749;28;21065;-55
2022/12/05 02:15:45;;;;;;;12.87;7.43;;;;;;;;;;5055484;28;20697;-58
2022/12/05 02:18:14;;;;;;;14.30;7.70;;;;;;;;;;5032183;28;20437;-54
2022/12/05 02:20:59;;;;;;;13.07;7.13;;;;;;;;;;5057878;28;20437;-54
2022/12/05 02:23:37;;;;;;;11.03;6.30;;;;;;;;;;5057888;28;20445;-57
2022/12/05 02:26:22;;;;;;;10.03;6.67;;;;;;;;;;5050357;28;20914;-54
2022/12/05 02:29:07;;;;;;;13.07;7.00;;;;;;;;;;5039315;28;20445;-54
2022/12/05 02:31:45;;;;;;;10.60;6.30;;;;;;;;;;5056319;28;20437;-54
2022/12/05 02:34:19;;;;;;;10.20;6.60;;;;;;;;;;5077445;28;20472;-53
2022/12/05 02:36:47;;;;;;;11.03;6.57;;;;;;;;;;5027461;28;20522;-55
2022/12/05 02:39:25;;;;;;;11.60;7.20;;;;;;;;;;5075320;28;20553;-54
2022/12/05 02:41:55;;;;;;;9.33;6.07;;;;;;;;;;5050516;28;20476;-52
2022/12/05 02:44:28;;;;;;;10.17;6.20;;;;;;;;;;5079229;28;20437;-54
2022/12/05 02:46:54;;;;;;;15.93;8.80;;;;;;;;;;5009971;28;21102;-54
2022/12/05 02:49:22;;;;;;;15.30;6.87;;;;;;;;;;5081115;28;20954;-54
2022/12/05 02:51:50;;;;;;;17.23;7.37;;;;;;;;;;5028566;28;20436;-53
2022/12/05 02:54:16;;;;;;;11.20;7.47;;;;;;;;;;5061892;28;20506;-54
2022/12/05 02:56:43;;;;;;;14.00;8.47;;;;;;;;;;5034705;28;20433;-55
2022/12/05 02:59:09;;;;;;;16.03;7.30;;;;;;;;;;5082590;28;20429;-54
2022/12/05 03:01:35;;;;;;;12.60;6.90;;;;;;;;;;5042913;28;20457;-54
2022/12/05 03:04:01;;;;;;;14.10;6.70;;;;;;;;;;5071839;28;20436;-54
2022/12/05 03:06:29;;;;;;;17.57;8.40;;;;;;;;;;5059803;28;20488;-54
2022/12/05 03:09:02;;;;;;;15.00;8.27;;;;;;;;;;5059701;28;20432;-53
2022/12/05 03:11:32;;;;;;;18.40;9.60;;;;;;;;;;5042833;28;20438;-54
2022/12/05 03:13:59;;;;;;;17.50;8.83;;;;;;;;;;5055252;28;20482;-54
2022/12/05 03:16:33;;;;;;;15.57;8.57;;;;;;;;;;5051393;28;21052;-55
2022/12/05 03:19:01;;;;;;;12.87;8.97;;;;;;;;;;5044873;28;20500;-57
2022/12/05 03:21:31;;;;;;;15.80;7.70;;;;;;;;;;5053235;28;20445;-59
2022/12/05 03:23:58;;;;;;;14.33;7.20;;;;;;;;;;5054903;28;20536;-58
2022/12/05 03:26:24;;;;;;;12.07;6.73;;;;;;;;;;5068181;28;20456;-55
2022/12/05 03:28:56;;;;;;;20.77;9.00;;;;;;;;;;5065455;28;20476;-56
2022/12/05 03:31:26;;;;;;;14.63;8.70;;;;;;;;;;5058717;28;20444;-54
2022/12/05 03:33:52;;;;;;;21.40;8.57;;;;;;;;;;5056967;28;20483;-55
2022/12/05 03:36:19;;;;;;;20.80;9.50;;;;;;;;;;5038864;28;22410;-55
2022/12/05 03:38:46;;;;;;;18.00;9.00;;;;;;;;;;5050224;28;21236;-55
2022/12/05 03:41:18;;;;;;;17.17;9.03;;;;;;;;;;5046925;28;20498;-55
2022/12/05 03:43:47;;;;;;;16.07;9.10;;;;;;;;;;5060147;28;20475;-54
2022/12/05 03:46:30;;;;;;;15.20;7.80;;;;;;;;;;5043783;28;20448;-54
2022/12/05 03:49:04;;;;;;;15.17;8.17;;;;;;;;;;5056890;28;21042;-54
2022/12/05 03:51:49;;;;;;;22.20;7.87;;;;;;;;;;5054713;28;20549;-54
2022/12/05 03:54:29;;;;;;;15.43;8.30;;;;;;;;;;5023999;28;21076;-55
2022/12/05 03:56:57;;;;;;;15.03;9.67;;;;;;;;;;5064770;28;20433;-55
2022/12/05 03:59:31;;;;;;;19.33;7.97;;;;;;;;;;5030811;28;20437;-55
2022/12/05 04:01:57;;;;;;;19.90;9.47;;;;;;;;;;5054602;28;22274;-55
2022/12/05 04:04:29;;;;;;;16.63;7.73;;;;;;;;;;5053144;28;20430;-54
2022/12/05 04:06:55;;;;;;;13.90;9.27;;;;;;;;;;5034709;28;21192;-55
2022/12/05 04:09:26;;;;;;;16.67;8.63;;;;;;;;;;5060726;28;20438;-55
2022/12/05 04:11:53;;;;;;;14.20;7.60;;;;;;;;;;5033864;28;20441;-54
2022/12/05 04:14:21;;;;;;;17.77;8.50;;;;;;;;;;5079266;28;20551;-55
2022/12/05 04:17:02;;;;;;;16.57;8.70;;;;;;;;;;5039042;28;20434;-54
2022/12/05 04:21:36;;;;;;;19.90;9.83;;;;;;;;;;5059393;28;20429;-55
2022/12/05 04:22:15;;;;;;;20.20;8.13;;;;;;;;;;5043227;28;20461;-55
2022/12/05 04:27:40;;;;;;;18.57;8.30;;;;;;;;;;5054622;28;21021;-55
2022/12/05 04:30:13;;;;;;;12.50;8.00;;;;;;;;;;5050037;28;23089;-55
2022/12/05 04:32:42;;;;;;;13.30;7.70;;;;;;;;;;5055985;28;20449;-56
2022/12/05 04:35:10;;;;;;;13.90;7.20;;;;;;;;;;5040270;28;20477;-55
2022/12/05 04:37:35;;;;;;;16.30;9.43;;;;;;;;;;5078199;28;20441;-55
2022/12/05 04:40:03;;;;;;;14.80;8.53;;;;;;;;;;5030423;28;20498;-52
2022/12/05 04:42:29;;;;;;;17.47;8.23;;;;;;;;;;5073250;28;20414;-54
2022/12/05 04:44:57;;;;;;;14.37;8.43;;;;;;;;;;5039809;28;20437;-54
2022/12/05 04:47:24;;;;;;;17.57;8.20;;;;;;;;;;5076261;28;20424;-55
2022/12/05 04:49:50;;;;;;;13.83;8.00;;;;;;;;;;5035415;28;20445;-54
2022/12/05 04:52:16;;;;;;;19.90;9.00;;;;;;;;;;5062863;28;20429;-54
2022/12/05 04:55:01;;;;;;;19.83;8.67;;;;;;;;;;5062285;28;20465;-53
2022/12/05 04:57:33;;;;;;;16.00;8.03;;;;;;;;;;5062126;28;20426;-53
2022/12/05 04:59:59;;;;;;;19.00;8.23;;;;;;;;;;5012442;28;20665;-55
2022/12/05 05:02:37;;;;;;;21.53;9.10;;;;;;;;;;5073937;28;21426;-54
2022/12/05 05:05:03;;;;;;;15.33;8.73;;;;;;;;;;5054089;28;20425;-53
2022/12/05 05:07:29;;;;;;;14.10;8.10;;;;;;;;;;5078871;28;20443;-56
2022/12/05 05:09:55;;;;;;;14.50;9.50;;;;;;;;;;5032781;28;20447;-56
2022/12/05 05:12:21;;;;;;;15.73;7.70;;;;;;;;;;5060949;28;20436;-56
2022/12/05 05:14:47;;;;;;;16.03;8.80;;;;;;;;;;5037273;28;20469;-56
2022/12/05 05:17:13;;;;;;;17.50;9.60;;;;;;;;;;5054049;28;20429;-54
2022/12/05 05:19:39;;;;;;;25.97;11.20;;;;;;;;;;5038851;28;22062;-54
2022/12/05 05:22:05;;;;;;;13.67;7.73;;;;;;;;;;5049584;28;20464;-56
2022/12/05 05:24:31;;;;;;;19.83;7.60;;;;;;;;;;5053159;28;20422;-53
2022/12/05 05:26:57;;;;;;;15.30;8.00;;;;;;;;;;5059113;28;20426;-56
2022/12/05 05:29:23;;;;;;;14.03;7.50;;;;;;;;;;5050987;28;20950;-56
2022/12/05 05:31:49;;;;;;;12.60;8.07;;;;;;;;;;5050608;28;20458;-55
2022/12/05 05:34:25;;;;;;;15.30;9.60;;;;;;;;;;5050705;28;20560;-56
2022/12/05 05:36:52;;;;;;;14.17;9.43;;;;;;;;;;5037785;28;20445;-56
2022/12/05 05:39:17;;;;;;;12.23;8.80;;;;;;;;;;5064138;28;20445;-55
2022/12/05 05:41:43;;;;;;;21.87;9.63;;;;;;;;;;5029685;28;21808;-54
2022/12/05 05:44:09;;;;;;;16.37;10.43;;;;;;;;;;5054216;28;20456;-54
2022/12/05 05:46:35;;;;;;;16.40;8.90;;;;;;;;;;5030700;28;20442;-56
2022/12/05 05:49:01;;;;;;;18.87;9.00;;;;;;;;;;5071053;28;20953;-55
2022/12/05 05:51:29;;;;;;;18.30;8.67;;;;;;;;;;5038231;28;20445;-56
2022/12/05 05:53:55;;;;;;;14.47;9.23;;;;;;;;;;5049193;28;20481;-56
2022/12/05 05:56:21;;;;;;;13.17;7.87;;;;;;;;;;5049592;28;20867;-55
2022/12/05 05:58:47;;;;;;;15.73;7.07;;;;;;;;;;5025307;28;20518;-56
2022/12/05 06:01:14;;;;;;;18.10;8.80;;;;;;;;;;5056961;28;20896;-55
2022/12/05 06:03:40;;;;;;;15.30;7.87;;;;;;;;;;5056774;28;20499;-55
2022/12/05 06:06:07;;;;;;;16.33;8.03;;;;;;;;;;5056080;28;20438;-55
2022/12/05 06:08:34;;;;;;;14.27;7.80;;;;;;;;;;5004733;28;20453;-54
2022/12/05 06:11:00;;;;;;;11.20;7.10;;;;;;;;;;5059199;28;20434;-56
2022/12/05 06:13:26;;;;;;;18.73;9.57;;;;;;;;;;5030227;28;20547;-55
2022/12/05 06:15:52;;;;;;;11.60;7.13;;;;;;;;;;5059925;28;20637;-54
2022/12/05 06:18:18;;;;;;;14.07;8.53;;;;;;;;;;5034090;28;22549;-60
2022/12/05 06:20:51;;;;;;;13.40;7.80;;;;;;;;;;5051144;28;20658;-54
2022/12/05 06:23:17;;;;;;;11.77;6.93;;;;;;;;;;5054036;28;21287;-55
2022/12/05 06:25:47;;;;;;;13.47;7.10;;;;;;;;;;5053942;28;20465;-56
2022/12/05 06:28:13;;;;;;;13.87;7.17;;;;;;;;;;5042144;28;20813;-55
2022/12/05 06:30:39;;;;;;;16.60;7.93;;;;;;;;;;5047928;28;20511;-56
2022/12/05 06:33:05;;;;;;;24.70;11.30;;;;;;;;;;5055544;28;20656;-56
2022/12/05 06:35:31;;;;;;;11.67;8.27;;;;;;;;;;5051202;28;20965;-55
2022/12/05 06:37:57;;;;;;;12.03;7.43;;;;;;;;;;5037417;28;21162;-56
2022/12/05 06:40:23;;;;;;;12.27;8.30;;;;;;;;;;5027787;28;20470;-55
2022/12/05 06:42:49;;;;;;;13.53;7.63;;;;;;;;;;5048149;28;20457;-56
2022/12/05 06:45:15;;;;;;;13.27;9.27;;;;;;;;;;5035887;28;20472;-56
2022/12/05 06:47:41;;;;;;;16.93;8.50;;;;;;;;;;5051975;28;20456;-55
2022/12/05 06:50:07;;;;;;;12.90;7.70;;;;;;;;;;5029935;28;20552;-56
2022/12/05 06:52:33;;;;;;;12.20;7.80;;;;;;;;;;5054748;28;20489;-56
2022/12/05 06:54:59;;;;;;;15.03;7.27;;;;;;;;;;5030082;28;20469;-55
2022/12/05 06:57:25;;;;;;;14.13;7.70;;;;;;;;;;5056263;28;20450;-55
2022/12/05 07:01:37;;;;;;;14.70;7.60;;;;;;;;;;5034985;28;20437;-55
2022/12/05 07:02:37;;;;;;;13.43;8.20;;;;;;;;;;5050751;28;20457;-57
2022/12/05 07:05:03;;;;;;;13.17;8.13;;;;;;;;;;5055888;28;20499;-57
2022/12/05 07:07:29;;;;;;;13.10;8.07;;;;;;;;;;5057181;28;20544;-60
2022/12/05 07:09:55;;;;;;;11.70;7.00;;;;;;;;;;5051639;28;20433;-55
2022/12/05 07:12:21;;;;;;;13.30;7.80;;;;;;;;;;5052551;28;20438;-55
2022/12/05 07:14:47;;;;;;;12.53;7.37;;;;;;;;;;5013568;28;20554;-53
2022/12/05 07:17:13;;;;;;;11.50;6.97;;;;;;;;;;5048031;28;20525;-55
2022/12/05 07:19:39;;;;;;;11.57;7.43;;;;;;;;;;5023503;28;21011;-55
2022/12/05 07:22:05;;;;;;;11.07;7.00;;;;;;;;;;5058843;28;20520;-53
2022/12/05 07:24:31;;;;;;;13.00;7.50;;;;;;;;;;5033518;28;20441;-55
2022/12/05 07:26:57;;;;;;;16.87;9.33;;;;;;;;;;5025455;28;21011;-55
2022/12/05 07:29:22;;;;;;;14.00;7.47;;;;;;;;;;5055744;28;20480;-55
2022/12/05 07:31:48;;;;;;;16.03;7.37;;;;;;;;;;5051235;28;20436;-55
2022/12/05 07:34:14;;;;;;;14.43;8.63;;;;;;;;;;5052689;28;20470;-55
2022/12/05 07:36:40;;;;;;;9.67;8.30;;;;;;;;;;5026547;28;22371;-54
2022/12/05 07:39:06;;;;;;;17.53;11.27;;;;;;;;;;5053793;28;20443;-55
2022/12/05 07:41:33;;;;;;;16.87;9.67;;;;;;;;;;5038432;28;20434;-55
2022/12/05 07:43:59;;;;;;;14.73;9.27;;;;;;;;;;5052810;28;20433;-55
2022/12/05 07:46:27;;;;;;;16.23;8.27;;;;;;;;;;5023742;28;20448;-55
2022/12/05 07:48:53;;;;;;;13.47;6.90;;;;;;;;;;5047270;28;20844;-56
2022/12/05 07:51:20;;;;;;;11.50;6.70;;;;;;;;;;5040974;28;20509;-57
2022/12/05 07:53:46;;;;;;;10.20;5.73;;;;;;;;;;5047708;28;23452;-55
2022/12/05 07:56:15;;;;;;;9.80;6.63;;;;;;;;;;5044555;28;20472;-57
2022/12/05 07:58:41;;;;;;;11.40;7.00;;;;;;;;;;5044921;28;20452;-56
2022/12/05 08:01:08;;;;;;;10.90;8.00;;;;;;;;;;5053264;28;20824;-58
2022/12/05 08:03:34;;;;;;;13.43;8.80;;;;;;;;;;5057117;28;21167;-57
2022/12/05 08:06:10;;;;;;;13.53;7.97;;;;;;;;;;5057601;28;20540;-57
2022/12/05 08:08:36;;;;;;;20.13;12.10;;;;;;;;;;5042340;28;20915;-54
2022/12/05 08:11:03;;;;;;;12.90;7.47;;;;;;;;;;5060762;28;20429;-55
2022/12/05 08:13:30;;;;;;;11.37;7.87;;;;;;;;;;5055255;28;20855;-56
2022/12/05 08:15:59;;;;;;;13.17;7.90;;;;;;;;;;5036275;28;20453;-55
2022/12/05 08:18:25;;;;;;;11.60;8.50;;;;;;;;;;5053217;28;20438;-60
2022/12/05 08:20:51;;;;;;;11.13;7.47;;;;;;;;;;5013695;28;21146;-55
2022/12/05 08:23:17;;;;;;;17.67;8.10;;;;;;;;;;5056521;28;20808;-56
2022/12/05 08:25:43;;;;;;;11.03;7.27;;;;;;;;;;5036660;28;20439;-55
2022/12/05 08:28:09;;;;;;;13.87;7.60;;;;;;;;;;5061654;28;20470;-56
2022/12/05 08:30:35;;;;;;;12.43;8.63;;;;;;;;;;5041506;28;20568;-56
2022/12/05 08:33:01;;;;;;;11.33;8.10;;;;;;;;;;5063372;28;20444;-59
2022/12/05 08:35:27;;;;;;;10.97;7.83;;;;;;;;;;5057428;28;20477;-55
2022/12/05 08:37:53;;;;;;;10.40;7.50;;;;;;;;;;5060398;28;20442;-55
2022/12/05 08:40:19;;;;;;;12.17;7.40;;;;;;;;;;5044743;28;20531;-57
2022/12/05 08:42:45;;;;;;;10.13;5.90;;;;;;;;;;5053204;28;20434;-56
2022/12/05 08:45:11;;;;;;;11.60;7.50;;;;;;;;;;5053598;28;21292;-57
2022/12/05 08:47:37;;;;;;;12.60;6.73;;;;;;;;;;5043694;28;20466;-54
2022/12/05 08:50:04;;;;;;;10.67;6.30;;;;;;;;;;5041999;28;20482;-57
2022/12/05 08:52:30;;;;;;;15.80;6.90;;;;;;;;;;5029368;28;20438;-56
2022/12/05 08:54:55;;;;;;;10.77;6.57;;;;;;;;;;5056031;28;20844;-56
2022/12/05 08:57:21;;;;;;;9.23;6.57;;;;;;;;;;5039561;28;20510;-56
2022/12/05 08:59:47;;;;;;;8.80;6.10;;;;;;;;;;5061081;28;20926;-55
2022/12/05 09:02:13;;;;;;;9.80;6.47;;;;;;;;;;5035755;28;20451;-54
2022/12/05 09:04:39;;;;;;;13.37;6.67;;;;;;;;;;5061961;28;20433;-56
2022/12/05 09:07:07;;;;;;;9.73;6.07;;;;;;;;;;5053423;28;21078;-58
2022/12/05 09:09:33;;;;;;;11.00;5.33;;;;;;;;;;5060565;28;20881;-57
2022/12/05 09:11:59;;;;;;;21.30;8.40;;;;;;;;;;5047341;28;20437;-56
2022/12/05 09:14:31;;;;;;;12.97;6.43;;;;;;;;;;5028140;28;20472;-57
2022/12/05 09:16:57;;;;;;;12.20;7.33;;;;;;;;;;5052096;28;20468;-57
2022/12/05 09:19:25;;;;;;;12.20;7.30;;;;;;;;;;5041932;28;20425;-56
2022/12/05 09:21:55;;;;;;;11.57;7.27;;;;;;;;;;5055812;28;20530;-56
2022/12/05 09:24:21;;;;;;;12.77;8.10;;;;;;;;;;5017347;28;20999;-55
2022/12/05 09:26:47;;;;;;;13.37;8.53;;;;;;;;;;5060050;28;20476;-56
2022/12/05 09:29:13;;;;;;;10.93;7.23;;;;;;;;;;5038051;28;20972;-57
2022/12/05 09:31:41;;;;;;;11.57;7.70;;;;;;;;;;5055492;28;20433;-55
2022/12/05 09:34:08;;;;;;;9.70;6.37;;;;;;;;;;5039598;28;21836;-57
2022/12/05 09:36:34;;;;;;;13.10;8.40;;;;;;;;;;5062126;28;21076;-55
2022/12/05 09:39:01;;;;;;;10.77;6.57;;;;;;;;;;5026503;28;20970;-56
2022/12/05 09:42:03;;;;;;;9.07;6.80;;;;;;;;;;5056217;28;20793;-58
2022/12/05 09:44:31;;;;;;;8.97;6.30;;;;;;;;;;5056774;28;21011;-56
2022/12/05 09:46:59;;;;;;;8.10;6.10;;;;;;;;;;5054675;28;21372;-59
2022/12/05 09:49:25;;;;;;;7.03;5.30;;;;;;;;;;5031860;28;20805;-57
2022/12/05 09:52:10;;;;;;;8.90;6.30;;;;;;;;;;5055390;28;20434;-55
2022/12/05 09:54:36;;;;;;;6.80;5.57;;;;;;;;;;5025096;28;20520;-56
2022/12/05 09:57:03;;;;;;;8.97;5.80;;;;;;;;;;5040452;28;20945;-58
2022/12/05 09:59:28;;;;;;;6.47;4.70;;;;;;;;;;5027452;28;20439;-54
2022/12/05 10:02:01;;;;;;;7.07;4.70;;;;;;;;;;5026579;28;20448;-56
2022/12/05 10:04:46;;;;;;;7.23;5.57;;;;;;;;;;5045477;28;20443;-56
2022/12/05 10:07:21;;;;;;;10.60;5.00;;;;;;;;;;5036666;28;20441;-55
2022/12/05 10:10:02;;;;;;;7.73;4.63;;;;;;;;;;5051114;28;20428;-56
2022/12/05 10:13:01;;;;;;;7.80;5.53;;;;;;;;;;5028278;28;20527;-59
2022/12/05 10:15:31;;;;;;;7.60;5.03;;;;;;;;;;5047684;28;20645;-57
2022/12/05 10:18:17;;;;;;;8.10;5.00;;;;;;;;;;5069814;28;20437;-55
2022/12/05 10:20:46;;;;;;;7.60;4.60;;;;;;;;;;5037145;28;20434;-56
2022/12/05 10:23:15;;;;;;;5.53;4.50;;;;;;;;;;5055014;28;20440;-57
2022/12/05 10:25:41;;;;;;;6.40;3.97;;;;;;;;;;5057101;28;20707;-56
2022/12/05 10:28:12;;;;;;;6.20;3.87;;;;;;;;;;5001540;28;20461;-55
2022/12/05 10:30:38;;;;;;;5.00;4.00;;;;;;;;;;5053627;28;20434;-56
2022/12/05 10:33:11;;;;;;;6.43;4.37;;;;;;;;;;5032434;28;20444;-56
2022/12/05 10:35:38;;;;;;;6.83;3.73;;;;;;;;;;5077648;28;20780;-57
2022/12/05 10:38:10;;;;;;;4.37;2.97;;;;;;;;;;5039012;28;20437;-56
2022/12/05 10:40:37;;;;;;;4.00;3.17;;;;;;;;;;5054235;28;20465;-57
2022/12/05 10:43:04;;;;;;;7.47;4.40;;;;;;;;;;5054368;28;20526;-55
2022/12/05 10:45:30;;;;;;;5.10;3.50;;;;;;;;;;5054590;28;20488;-56
2022/12/05 10:47:56;;;;;;;5.77;3.57;;;;;;;;;;5039270;28;20438;-56
2022/12/05 10:50:27;;;;;;;11.40;4.13;;;;;;;;;;5062813;28;20449;-55
2022/12/05 10:52:53;;;;;;;4.10;3.20;;;;;;;;;;5049098;28;20454;-60
2022/12/05 10:55:19;;;;;;;4.67;3.30;;;;;;;;;;5051354;28;21022;-58
2022/12/05 10:57:49;;;;;;;4.43;3.17;;;;;;;;;;5007704;28;20442;-57
2022/12/05 11:00:16;;;;;;;5.70;3.77;;;;;;;;;;5058507;28;20425;-65
2022/12/05 11:02:42;;;;;;;4.27;2.40;;;;;;;;;;5044352;28;20461;-57
2022/12/05 11:05:09;;;;;;;3.70;3.10;;;;;;;;;;5067913;28;20551;-56
2022/12/05 11:07:36;;;;;;;5.77;2.97;;;;;;;;;;5052489;28;20440;-56
2022/12/05 11:10:03;;;;;;;4.30;2.90;;;;;;;;;;5077456;28;20664;-56
2022/12/05 11:12:29;;;;;;;3.60;2.87;;;;;;;;;;5036946;28;20448;-54
2022/12/05 11:15:03;;;;;;;3.63;2.83;;;;;;;;;;5050143;28;21038;-54
2022/12/05 11:17:30;;;;;;;4.43;3.63;;;;;;;;;;5042252;28;20492;-56
2022/12/05 11:19:56;;;;;;;4.03;3.13;;;;;;;;;;5055910;28;20440;-55
2022/12/05 11:22:29;;;;;;;3.57;2.70;;;;;;;;;;5056808;28;20437;-55
2022/12/05 11:24:55;;;;;;;5.20;3.90;;;;;;;;;;5065272;28;20418;-55
2022/12/05 11:27:25;;;;;;;3.83;3.43;;;;;;;;;;5042738;28;21194;-56
2022/12/05 11:29:54;;;;;;;4.80;3.23;;;;;;;;;;5015333;28;20515;-55
2022/12/05 11:32:24;;;;;;;3.23;2.93;;;;;;;;;;5054578;28;20440;-56
2022/12/05 11:34:55;;;;;;;6.00;4.33;;;;;;;;;;5027612;28;20481;-57
2022/12/05 11:37:25;;;;;;;3.00;2.60;;;;;;;;;;5043041;28;20473;-54
2022/12/05 11:39:51;;;;;;;17.37;3.90;;;;;;;;;;5060361;28;20448;-54
2022/12/05 11:42:30;;;;;;;4.10;3.60;;;;;;;;;;5052451;28;20434;-57
2022/12/05 11:45:12;;;;;;;3.27;2.50;;;;;;;;;;5055680;28;20451;-56
2022/12/05 11:47:39;;;;;;;4.17;2.90;;;;;;;;;;5054878;28;20739;-57
2022/12/05 11:50:24;;;;;;;4.97;3.00;;;;;;;;;;5058518;28;20503;-57
2022/12/05 11:53:09;;;;;;;4.70;3.20;;;;;;;;;;5058515;28;20469;-57
2022/12/05 11:55:38;;;;;;;2.93;2.63;;;;;;;;;;5061690;28;20484;-57
2022/12/05 11:58:13;;;;;;;4.20;2.67;;;;;;;;;;5037275;28;20540;-56
2022/12/05 12:00:45;;;;;;;3.50;3.03;;;;;;;;;;5058885;28;20721;-56
2022/12/05 12:03:11;;;;;;;4.33;3.30;;;;;;;;;;5014690;28;20441;-57
2022/12/05 12:05:42;;;;;;;3.80;2.33;;;;;;;;;;5059998;28;20798;-55
2022/12/05 12:08:28;;;;;;;3.93;3.10;;;;;;;;;;5037179;28;20502;-55
2022/12/05 12:11:06;;;;;;;2.60;2.40;;;;;;;;;;5055635;28;20452;-56
2022/12/05 12:13:42;;;;;;;6.53;2.97;;;;;;;;;;5035994;28;20442;-55
2022/12/05 12:16:08;;;;;;;3.57;2.40;;;;;;;;;;5058593;28;20468;-55
2022/12/05 12:18:42;;;;;;;5.33;2.90;;;;;;;;;;5039518;28;20472;-55
2022/12/05 12:21:11;;;;;;;4.00;3.03;;;;;;;;;;5052462;28;20438;-55
2022/12/05 12:23:55;;;;;;;4.10;2.67;;;;;;;;;;5056411;28;20438;-55
2022/12/05 12:26:27;;;;;;;4.53;2.87;;;;;;;;;;5061763;28;20520;-55
2022/12/05 12:29:01;;;;;;;3.80;2.70;;;;;;;;;;5045235;28;20834;-55
2022/12/05 12:31:27;;;;;;;3.23;2.93;;;;;;;;;;5067484;28;20441;-56
2022/12/05 12:34:03;;;;;;;4.10;3.30;;;;;;;;;;5037620;28;20494;-55
2022/12/05 12:36:37;;;;;;;5.40;2.97;;;;;;;;;;5043205;28;20621;-54
2022/12/05 12:39:03;;;;;;;3.07;2.40;;;;;;;;;;4994553;28;20445;-54
2022/12/05 12:41:36;;;;;;;2.37;1.90;;;;;;;;;;5061246;28;20442;-56
2022/12/05 12:44:11;;;;;;;3.63;1.93;;;;;;;;;;5047765;28;20535;-57
2022/12/05 12:46:38;;;;;;;3.07;2.07;;;;;;;;;;5063065;28;21209;-56
2022/12/05 12:49:03;;;;;;;2.33;1.90;;;;;;;;;;5036493;28;20441;-56
2022/12/05 12:51:30;;;;;;;2.30;2.10;;;;;;;;;;5057646;28;20470;-56
2022/12/05 12:53:56;;;;;;;2.63;2.13;;;;;;;;;;5068676;28;20485;-56
2022/12/05 12:56:27;;;;;;;4.73;2.00;;;;;;;;;;5060908;28;20430;-57
2022/12/05 12:58:54;;;;;;;3.03;2.57;;;;;;;;;;5069420;28;21065;-57
2022/12/05 13:01:23;;;;;;;2.57;2.33;;;;;;;;;;5074424;28;20516;-55
2022/12/05 13:04:01;;;;;;;2.67;2.00;;;;;;;;;;5051730;28;20476;-57
2022/12/05 13:06:28;;;;;;;2.53;2.17;;;;;;;;;;5056847;28;20528;-57
2022/12/05 13:08:55;;;;;;;4.07;2.67;;;;;;;;;;5001053;28;20758;-55
2022/12/05 13:11:21;;;;;;;2.70;2.50;;;;;;;;;;5058317;28;20975;-58
2022/12/05 13:13:51;;;;;;;2.47;2.20;;;;;;;;;;5054686;28;20957;-57
2022/12/05 13:16:25;;;;;;;3.27;2.30;;;;;;;;;;5053506;28;20437;-56
2022/12/05 13:18:51;;;;;;;4.03;1.70;;;;;;;;;;5037138;28;20961;-56
2022/12/05 13:21:17;;;;;;;2.67;1.83;;;;;;;;;;5058354;28;20445;-56
2022/12/05 13:23:45;;;;;;;3.90;2.07;;;;;;;;;;5071383;28;20436;-59
2022/12/05 13:26:11;;;;;;;2.97;2.23;;;;;;;;;;5057085;28;20905;-56
2022/12/05 13:28:41;;;;;;;3.80;2.17;;;;;;;;;;5030256;28;20441;-56
2022/12/05 13:31:07;;;;;;;3.57;2.60;;;;;;;;;;5058599;28;20441;-57
2022/12/05 13:33:34;;;;;;;3.43;2.10;;;;;;;;;;5050971;28;20429;-57
2022/12/05 13:44:29;;;;;;;2.80;1.93;;;;;;;;;;5058881;28;20472;-56
2022/12/05 13:46:55;;;;;;;3.50;1.93;;;;;;;;;;5058203;28;20436;-56
2022/12/05 13:49:50;;;;;;;2.83;2.50;;;;;;;;;;5029421;28;20813;-54
2022/12/05 13:52:19;;;;;;;4.63;2.57;;;;;;;;;;5023088;28;20419;-57
2022/12/05 13:54:48;;;;;;;2.10;1.90;;;;;;;;;;5032975;28;20481;-55
2022/12/05 13:57:43;;;;;;;4.83;2.60;;;;;;;;;;5062088;28;20514;-56
2022/12/05 14:00:09;;;;;;;3.70;2.37;;;;;;;;;;5039261;28;20442;-57
2022/12/05 14:02:41;;;;;;;3.10;1.80;;;;;;;;;;5053490;28;20429;-54
2022/12/05 14:05:13;;;;;;;3.97;2.20;;;;;;;;;;5035912;28;20444;-56
2022/12/05 14:07:40;;;;;;;3.50;2.43;;;;;;;;;;5055908;28;21167;-55
2022/12/05 14:10:06;;;;;;;4.40;2.77;;;;;;;;;;5057661;28;20477;-55
2022/12/05 14:13:14;;;;;;;5.93;2.83;;;;;;;;;;5053556;28;20484;-56
2022/12/05 14:15:44;;;;;;;3.13;2.60;;;;;;;;;;5053779;28;20572;-56
2022/12/05 14:18:16;;;;;;;5.57;3.17;;;;;;;;;;5045046;28;20787;-57
2022/12/05 14:20:54;;;;;;;6.10;2.97;;;;;;;;;;5057278;28;20436;-55
2022/12/05 14:23:39;;;;;;;4.70;3.00;;;;;;;;;;5032974;28;20438;-57
2022/12/05 14:26:30;;;;;;;3.83;2.90;;;;;;;;;;5052150;28;20941;-56
2022/12/05 14:29:02;;;;;;;5.80;2.60;;;;;;;;;;5043765;28;20442;-55
2022/12/05 14:31:33;;;;;;;3.27;2.40;;;;;;;;;;5057475;28;20447;-55
2022/12/05 14:34:19;;;;;;;5.20;2.93;;;;;;;;;;5052442;28;20546;-56
2022/12/05 14:36:55;;;;;;;5.17;2.43;;;;;;;;;;5056175;28;20998;-54
2022/12/05 14:39:22;;;;;;;2.93;2.30;;;;;;;;;;5046328;28;20437;-56
2022/12/05 14:41:54;;;;;;;3.67;2.90;;;;;;;;;;5053079;28;20449;-58
2022/12/05 14:44:20;;;;;;;3.40;2.53;;;;;;;;;;5014458;28;20460;-57
2022/12/05 14:46:46;;;;;;;8.00;6.67;;;;;;;;;;5052803;28;20417;-58
2022/12/05 14:49:31;;;;;;;8.83;5.27;;;;;;;;;;5043963;28;20480;-56
2022/12/05 14:51:57;;;;;;;8.30;6.87;;;;;;;;;;5019547;28;20445;-57
2022/12/05 14:54:23;;;;;;;10.70;7.00;;;;;;;;;;5049317;28;20479;-56
2022/12/05 14:56:51;;;;;;;10.83;7.10;;;;;;;;;;5034162;28;21627;-55